sensor_id;sensor_type;location;lat;lon;timestamp;P1;durP1;ratioP1;P2;durP2;ratioP2
29568;SDS011;16501;51.462;14.346;2023-12-28T00:00:17;8.48;;;3.65;;
29568;SDS011;16501;51.462;14.346;2023-12-28T00:02:42;8.45;;;3.70;;
29568;SDS011;16501;51.462;14.346;2023-12-28T00:05:07;9.73;;;4.00;;
29568;SDS011;16501;51.462;14.346;2023-12-28T00:07:33;8.57;;;3.25;;
29568;SDS011;16501;51.462;14.346;2023-12-28T00:09:58;8.38;;;3.80;;
29568;SDS011;16501;51.462;14.346;2023-12-28T00:12:23;11.13;;;4.03;;
29568;SDS011;16501;51.462;14.346;2023-12-28T00:14:48;6.82;;;3.42;;
29568;SDS011;16501;51.462;14.346;2023-12-28T00:17:14;10.05;;;3.28;;
29568;SDS011;16501;51.462;14.346;2023-12-28T00:19:39;18.50;;;4.35;;
29568;SDS011;16501;51.462;14.346;2023-12-28T00:22:04;5.90;;;3.35;;
29568;SDS011;16501;51.462;14.346;2023-12-28T00:24:30;6.88;;;3.58;;
29568;SDS011;16501;51.462;14.346;2023-12-28T00:26:55;7.03;;;3.78;;
29568;SDS011;16501;51.462;14.346;2023-12-28T00:29:20;7.47;;;3.60;;
29568;SDS011;16501;51.462;14.346;2023-12-28T00:31:46;8.75;;;3.63;;
29568;SDS011;16501;51.462;14.346;2023-12-28T00:34:11;14.63;;;4.22;;
29568;SDS011;16501;51.462;14.346;2023-12-28T00:36:36;10.70;;;3.47;;
29568;SDS011;16501;51.462;14.346;2023-12-28T00:39:02;6.32;;;3.60;;
29568;SDS011;16501;51.462;14.346;2023-12-28T00:41:28;7.43;;;4.15;;
29568;SDS011;16501;51.462;14.346;2023-12-28T00:43:53;9.35;;;3.78;;
29568;SDS011;16501;51.462;14.346;2023-12-28T00:46:18;6.28;;;3.67;;
29568;SDS011;16501;51.462;14.346;2023-12-28T00:48:43;8.20;;;3.80;;
29568;SDS011;16501;51.462;14.346;2023-12-28T00:51:09;8.80;;;3.40;;
29568;SDS011;16501;51.462;14.346;2023-12-28T00:53:34;7.60;;;3.08;;
29568;SDS011;16501;51.462;14.346;2023-12-28T00:55:59;8.55;;;3.63;;
29568;SDS011;16501;51.462;14.346;2023-12-28T00:58:25;10.85;;;4.63;;
29568;SDS011;16501;51.462;14.346;2023-12-28T01:00:50;11.02;;;2.97;;
29568;SDS011;16501;51.462;14.346;2023-12-28T01:03:18;6.55;;;3.63;;
29568;SDS011;16501;51.462;14.346;2023-12-28T01:05:44;10.45;;;3.67;;
29568;SDS011;16501;51.462;14.346;2023-12-28T01:08:12;7.75;;;3.50;;
29568;SDS011;16501;51.462;14.346;2023-12-28T01:10:37;8.48;;;3.45;;
29568;SDS011;16501;51.462;14.346;2023-12-28T01:13:02;7.70;;;3.13;;
29568;SDS011;16501;51.462;14.346;2023-12-28T01:15:28;8.10;;;3.40;;
29568;SDS011;16501;51.462;14.346;2023-12-28T01:17:53;5.95;;;3.15;;
29568;SDS011;16501;51.462;14.346;2023-12-28T01:20:18;7.55;;;3.30;;
29568;SDS011;16501;51.462;14.346;2023-12-28T01:22:43;11.07;;;3.45;;
29568;SDS011;16501;51.462;14.346;2023-12-28T01:25:09;7.32;;;3.47;;
29568;SDS011;16501;51.462;14.346;2023-12-28T01:27:34;6.43;;;3.28;;
29568;SDS011;16501;51.462;14.346;2023-12-28T01:29:59;5.85;;;2.97;;
29568;SDS011;16501;51.462;14.346;2023-12-28T01:32:25;5.60;;;3.22;;
29568;SDS011;16501;51.462;14.346;2023-12-28T01:34:50;6.47;;;2.95;;
29568;SDS011;16501;51.462;14.346;2023-12-28T01:37:15;5.78;;;3.08;;
29568;SDS011;16501;51.462;14.346;2023-12-28T01:39:41;8.00;;;3.28;;
29568;SDS011;16501;51.462;14.346;2023-12-28T01:42:06;6.82;;;3.00;;
29568;SDS011;16501;51.462;14.346;2023-12-28T01:44:31;9.63;;;3.53;;
29568;SDS011;16501;51.462;14.346;2023-12-28T01:46:56;6.88;;;3.42;;
29568;SDS011;16501;51.462;14.346;2023-12-28T01:49:22;9.70;;;3.67;;
29568;SDS011;16501;51.462;14.346;2023-12-28T01:51:48;6.32;;;2.97;;
29568;SDS011;16501;51.462;14.346;2023-12-28T01:54:15;5.93;;;2.78;;
29568;SDS011;16501;51.462;14.346;2023-12-28T01:56:40;6.80;;;2.80;;
29568;SDS011;16501;51.462;14.346;2023-12-28T01:59:07;7.75;;;3.53;;
29568;SDS011;16501;51.462;14.346;2023-12-28T02:01:34;7.30;;;2.85;;
29568;SDS011;16501;51.462;14.346;2023-12-28T02:03:59;5.95;;;3.22;;
29568;SDS011;16501;51.462;14.346;2023-12-28T02:06:25;5.32;;;3.00;;
29568;SDS011;16501;51.462;14.346;2023-12-28T02:08:51;6.68;;;3.30;;
29568;SDS011;16501;51.462;14.346;2023-12-28T02:11:17;5.82;;;3.55;;
29568;SDS011;16501;51.462;14.346;2023-12-28T02:13:43;7.97;;;3.50;;
29568;SDS011;16501;51.462;14.346;2023-12-28T02:16:15;7.93;;;3.50;;
29568;SDS011;16501;51.462;14.346;2023-12-28T02:18:53;5.60;;;3.00;;
29568;SDS011;16501;51.462;14.346;2023-12-28T02:21:21;6.10;;;3.22;;
29568;SDS011;16501;51.462;14.346;2023-12-28T02:23:47;4.55;;;3.15;;
29568;SDS011;16501;51.462;14.346;2023-12-28T02:26:13;9.13;;;3.47;;
29568;SDS011;16501;51.462;14.346;2023-12-28T02:28:39;7.88;;;3.55;;
29568;SDS011;16501;51.462;14.346;2023-12-28T02:31:04;8.60;;;3.40;;
29568;SDS011;16501;51.462;14.346;2023-12-28T02:33:34;8.45;;;3.40;;
29568;SDS011;16501;51.462;14.346;2023-12-28T02:36:16;7.03;;;3.22;;
29568;SDS011;16501;51.462;14.346;2023-12-28T02:38:45;10.23;;;3.95;;
29568;SDS011;16501;51.462;14.346;2023-12-28T02:41:13;7.72;;;3.58;;
29568;SDS011;16501;51.462;14.346;2023-12-28T02:43:39;7.45;;;3.60;;
29568;SDS011;16501;51.462;14.346;2023-12-28T02:46:05;11.82;;;3.53;;
29568;SDS011;16501;51.462;14.346;2023-12-28T02:48:30;6.75;;;3.58;;
29568;SDS011;16501;51.462;14.346;2023-12-28T02:50:55;6.28;;;2.88;;
29568;SDS011;16501;51.462;14.346;2023-12-28T02:53:21;9.98;;;3.83;;
29568;SDS011;16501;51.462;14.346;2023-12-28T02:55:46;9.48;;;3.50;;
29568;SDS011;16501;51.462;14.346;2023-12-28T02:58:11;7.43;;;3.85;;
29568;SDS011;16501;51.462;14.346;2023-12-28T03:00:36;7.13;;;3.75;;
29568;SDS011;16501;51.462;14.346;2023-12-28T03:03:02;6.50;;;2.85;;
29568;SDS011;16501;51.462;14.346;2023-12-28T03:05:27;5.97;;;3.42;;
29568;SDS011;16501;51.462;14.346;2023-12-28T03:07:52;5.82;;;3.25;;
29568;SDS011;16501;51.462;14.346;2023-12-28T03:10:20;8.65;;;3.67;;
29568;SDS011;16501;51.462;14.346;2023-12-28T03:12:45;6.43;;;3.60;;
29568;SDS011;16501;51.462;14.346;2023-12-28T03:15:10;6.15;;;3.28;;
29568;SDS011;16501;51.462;14.346;2023-12-28T03:17:36;6.60;;;3.50;;
29568;SDS011;16501;51.462;14.346;2023-12-28T03:20:02;5.22;;;3.05;;
29568;SDS011;16501;51.462;14.346;2023-12-28T03:22:27;6.03;;;3.80;;
29568;SDS011;16501;51.462;14.346;2023-12-28T03:24:52;9.00;;;3.83;;
29568;SDS011;16501;51.462;14.346;2023-12-28T03:27:18;11.00;;;4.05;;
29568;SDS011;16501;51.462;14.346;2023-12-28T03:29:43;8.15;;;3.92;;
29568;SDS011;16501;51.462;14.346;2023-12-28T03:32:08;6.32;;;3.88;;
29568;SDS011;16501;51.462;14.346;2023-12-28T03:34:34;6.82;;;3.22;;
29568;SDS011;16501;51.462;14.346;2023-12-28T03:37:00;8.80;;;3.58;;
29568;SDS011;16501;51.462;14.346;2023-12-28T03:39:25;6.15;;;3.25;;
29568;SDS011;16501;51.462;14.346;2023-12-28T03:41:51;7.80;;;3.55;;
29568;SDS011;16501;51.462;14.346;2023-12-28T03:44:18;6.20;;;3.38;;
29568;SDS011;16501;51.462;14.346;2023-12-28T03:46:43;5.07;;;3.08;;
29568;SDS011;16501;51.462;14.346;2023-12-28T03:49:09;7.88;;;3.50;;
29568;SDS011;16501;51.462;14.346;2023-12-28T03:51:34;6.05;;;3.33;;
29568;SDS011;16501;51.462;14.346;2023-12-28T03:53:59;4.78;;;2.88;;
29568;SDS011;16501;51.462;14.346;2023-12-28T03:56:25;9.82;;;3.83;;
29568;SDS011;16501;51.462;14.346;2023-12-28T03:58:52;5.95;;;2.70;;
29568;SDS011;16501;51.462;14.346;2023-12-28T04:01:19;8.45;;;3.30;;
29568;SDS011;16501;51.462;14.346;2023-12-28T04:03:46;4.95;;;2.67;;
29568;SDS011;16501;51.462;14.346;2023-12-28T04:06:12;5.85;;;2.80;;
29568;SDS011;16501;51.462;14.346;2023-12-28T04:08:38;5.47;;;2.63;;
29568;SDS011;16501;51.462;14.346;2023-12-28T04:11:03;8.15;;;3.00;;
29568;SDS011;16501;51.462;14.346;2023-12-28T04:13:29;7.20;;;2.78;;
29568;SDS011;16501;51.462;14.346;2023-12-28T04:15:54;4.60;;;2.58;;
29568;SDS011;16501;51.462;14.346;2023-12-28T04:18:19;5.45;;;2.28;;
29568;SDS011;16501;51.462;14.346;2023-12-28T04:20:44;5.70;;;2.88;;
29568;SDS011;16501;51.462;14.346;2023-12-28T04:23:10;3.90;;;2.60;;
29568;SDS011;16501;51.462;14.346;2023-12-28T04:25:35;7.18;;;2.92;;
29568;SDS011;16501;51.462;14.346;2023-12-28T04:28:00;3.83;;;2.50;;
29568;SDS011;16501;51.462;14.346;2023-12-28T04:30:26;3.10;;;2.30;;
29568;SDS011;16501;51.462;14.346;2023-12-28T04:32:52;4.30;;;2.38;;
29568;SDS011;16501;51.462;14.346;2023-12-28T04:35:17;4.20;;;2.47;;
29568;SDS011;16501;51.462;14.346;2023-12-28T04:37:42;5.15;;;2.50;;
29568;SDS011;16501;51.462;14.346;2023-12-28T04:40:08;3.15;;;1.98;;
29568;SDS011;16501;51.462;14.346;2023-12-28T04:42:33;4.50;;;1.88;;
29568;SDS011;16501;51.462;14.346;2023-12-28T04:44:59;8.65;;;2.00;;
29568;SDS011;16501;51.462;14.346;2023-12-28T04:47:24;5.03;;;2.03;;
29568;SDS011;16501;51.462;14.346;2023-12-28T04:49:49;5.13;;;2.10;;
29568;SDS011;16501;51.462;14.346;2023-12-28T04:52:14;3.15;;;1.83;;
29568;SDS011;16501;51.462;14.346;2023-12-28T04:54:40;4.90;;;2.20;;
29568;SDS011;16501;51.462;14.346;2023-12-28T04:57:06;5.13;;;2.00;;
29568;SDS011;16501;51.462;14.346;2023-12-28T04:59:33;3.75;;;1.77;;
29568;SDS011;16501;51.462;14.346;2023-12-28T05:02:03;2.55;;;1.63;;
29568;SDS011;16501;51.462;14.346;2023-12-28T05:04:28;6.55;;;2.15;;
29568;SDS011;16501;51.462;14.346;2023-12-28T05:06:53;6.57;;;1.70;;
29568;SDS011;16501;51.462;14.346;2023-12-28T05:09:18;3.58;;;1.60;;
29568;SDS011;16501;51.462;14.346;2023-12-28T05:11:44;1.85;;;1.70;;
29568;SDS011;16501;51.462;14.346;2023-12-28T05:14:09;3.97;;;2.15;;
29568;SDS011;16501;51.462;14.346;2023-12-28T05:16:34;2.53;;;1.65;;
29568;SDS011;16501;51.462;14.346;2023-12-28T05:18:59;3.45;;;1.80;;
29568;SDS011;16501;51.462;14.346;2023-12-28T05:21:25;5.85;;;2.03;;
29568;SDS011;16501;51.462;14.346;2023-12-28T05:23:50;5.45;;;2.25;;
29568;SDS011;16501;51.462;14.346;2023-12-28T05:26:15;5.22;;;2.10;;
29568;SDS011;16501;51.462;14.346;2023-12-28T05:28:40;5.43;;;2.13;;
29568;SDS011;16501;51.462;14.346;2023-12-28T05:31:06;2.78;;;1.80;;
29568;SDS011;16501;51.462;14.346;2023-12-28T05:33:31;3.75;;;2.10;;
29568;SDS011;16501;51.462;14.346;2023-12-28T05:35:57;3.83;;;2.45;;
29568;SDS011;16501;51.462;14.346;2023-12-28T05:38:22;3.55;;;2.17;;
29568;SDS011;16501;51.462;14.346;2023-12-28T05:40:47;3.13;;;1.80;;
29568;SDS011;16501;51.462;14.346;2023-12-28T05:43:12;4.38;;;2.42;;
29568;SDS011;16501;51.462;14.346;2023-12-28T05:45:38;3.90;;;2.40;;
29568;SDS011;16501;51.462;14.346;2023-12-28T05:48:03;4.65;;;2.58;;
29568;SDS011;16501;51.462;14.346;2023-12-28T05:50:28;4.53;;;2.78;;
29568;SDS011;16501;51.462;14.346;2023-12-28T05:52:54;5.00;;;2.50;;
29568;SDS011;16501;51.462;14.346;2023-12-28T05:55:20;5.82;;;2.58;;
29568;SDS011;16501;51.462;14.346;2023-12-28T05:57:45;7.32;;;2.67;;
29568;SDS011;16501;51.462;14.346;2023-12-28T06:00:10;5.28;;;2.95;;
29568;SDS011;16501;51.462;14.346;2023-12-28T06:02:36;5.00;;;2.83;;
29568;SDS011;16501;51.462;14.346;2023-12-28T06:05:01;6.15;;;2.90;;
29568;SDS011;16501;51.462;14.346;2023-12-28T06:07:27;6.05;;;2.83;;
29568;SDS011;16501;51.462;14.346;2023-12-28T06:09:52;6.57;;;2.80;;
29568;SDS011;16501;51.462;14.346;2023-12-28T06:12:17;3.88;;;2.47;;
29568;SDS011;16501;51.462;14.346;2023-12-28T06:14:42;8.55;;;3.20;;
29568;SDS011;16501;51.462;14.346;2023-12-28T06:17:08;5.15;;;2.95;;
29568;SDS011;16501;51.462;14.346;2023-12-28T06:19:33;3.55;;;2.53;;
29568;SDS011;16501;51.462;14.346;2023-12-28T06:21:58;4.22;;;2.53;;
29568;SDS011;16501;51.462;14.346;2023-12-28T06:24:24;5.75;;;2.63;;
29568;SDS011;16501;51.462;14.346;2023-12-28T06:26:49;6.72;;;2.85;;
29568;SDS011;16501;51.462;14.346;2023-12-28T06:29:15;6.18;;;2.55;;
29568;SDS011;16501;51.462;14.346;2023-12-28T06:31:41;3.65;;;2.60;;
29568;SDS011;16501;51.462;14.346;2023-12-28T06:34:06;3.92;;;2.83;;
29568;SDS011;16501;51.462;14.346;2023-12-28T06:36:32;5.43;;;3.25;;
29568;SDS011;16501;51.462;14.346;2023-12-28T06:38:58;3.83;;;2.78;;
29568;SDS011;16501;51.462;14.346;2023-12-28T06:41:24;4.28;;;2.13;;
29568;SDS011;16501;51.462;14.346;2023-12-28T06:43:50;3.33;;;2.13;;
29568;SDS011;16501;51.462;14.346;2023-12-28T06:46:15;4.38;;;2.55;;
29568;SDS011;16501;51.462;14.346;2023-12-28T06:48:40;3.80;;;2.28;;
29568;SDS011;16501;51.462;14.346;2023-12-28T06:51:06;4.50;;;2.33;;
29568;SDS011;16501;51.462;14.346;2023-12-28T06:53:31;4.22;;;1.83;;
29568;SDS011;16501;51.462;14.346;2023-12-28T06:55:57;2.65;;;1.77;;
29568;SDS011;16501;51.462;14.346;2023-12-28T06:58:22;5.25;;;2.30;;
29568;SDS011;16501;51.462;14.346;2023-12-28T07:00:47;3.58;;;1.95;;
29568;SDS011;16501;51.462;14.346;2023-12-28T07:03:13;4.50;;;2.33;;
29568;SDS011;16501;51.462;14.346;2023-12-28T07:05:38;4.35;;;2.13;;
29568;SDS011;16501;51.462;14.346;2023-12-28T07:08:03;3.13;;;1.52;;
29568;SDS011;16501;51.462;14.346;2023-12-28T07:10:30;3.30;;;1.73;;
29568;SDS011;16501;51.462;14.346;2023-12-28T07:12:55;1.63;;;1.30;;
29568;SDS011;16501;51.462;14.346;2023-12-28T07:15:20;3.13;;;1.70;;
29568;SDS011;16501;51.462;14.346;2023-12-28T07:17:45;3.70;;;1.92;;
29568;SDS011;16501;51.462;14.346;2023-12-28T07:20:11;3.30;;;1.73;;
29568;SDS011;16501;51.462;14.346;2023-12-28T07:22:36;2.35;;;1.63;;
29568;SDS011;16501;51.462;14.346;2023-12-28T07:25:02;3.42;;;1.98;;
29568;SDS011;16501;51.462;14.346;2023-12-28T07:27:28;2.45;;;1.45;;
29568;SDS011;16501;51.462;14.346;2023-12-28T07:29:54;2.97;;;1.90;;
29568;SDS011;16501;51.462;14.346;2023-12-28T07:32:19;6.43;;;2.03;;
29568;SDS011;16501;51.462;14.346;2023-12-28T07:34:46;5.38;;;1.75;;
29568;SDS011;16501;51.462;14.346;2023-12-28T07:37:12;2.55;;;1.77;;
29568;SDS011;16501;51.462;14.346;2023-12-28T07:39:37;2.72;;;1.92;;
29568;SDS011;16501;51.462;14.346;2023-12-28T07:42:02;19.67;;;8.35;;
29568;SDS011;16501;51.462;14.346;2023-12-28T07:44:27;10.40;;;5.90;;
29568;SDS011;16501;51.462;14.346;2023-12-28T07:46:53;3.95;;;2.42;;
29568;SDS011;16501;51.462;14.346;2023-12-28T07:49:18;2.85;;;1.63;;
29568;SDS011;16501;51.462;14.346;2023-12-28T07:51:43;2.45;;;1.80;;
29568;SDS011;16501;51.462;14.346;2023-12-28T07:54:09;6.28;;;1.92;;
29568;SDS011;16501;51.462;14.346;2023-12-28T07:56:34;6.88;;;1.85;;
29568;SDS011;16501;51.462;14.346;2023-12-28T07:59:00;2.47;;;1.60;;
29568;SDS011;16501;51.462;14.346;2023-12-28T08:01:25;3.97;;;1.60;;
29568;SDS011;16501;51.462;14.346;2023-12-28T08:03:50;2.67;;;1.77;;
29568;SDS011;16501;51.462;14.346;2023-12-28T08:06:16;2.72;;;1.98;;
29568;SDS011;16501;51.462;14.346;2023-12-28T08:08:41;3.58;;;1.88;;
29568;SDS011;16501;51.462;14.346;2023-12-28T08:11:06;3.53;;;1.70;;
29568;SDS011;16501;51.462;14.346;2023-12-28T08:13:32;2.90;;;2.13;;
29568;SDS011;16501;51.462;14.346;2023-12-28T08:15:57;3.50;;;2.00;;
29568;SDS011;16501;51.462;14.346;2023-12-28T08:18:22;2.50;;;1.52;;
29568;SDS011;16501;51.462;14.346;2023-12-28T08:20:48;4.95;;;1.60;;
29568;SDS011;16501;51.462;14.346;2023-12-28T08:23:15;1.80;;;1.70;;
29568;SDS011;16501;51.462;14.346;2023-12-28T08:25:40;4.03;;;1.88;;
29568;SDS011;16501;51.462;14.346;2023-12-28T08:28:05;2.63;;;1.95;;
29568;SDS011;16501;51.462;14.346;2023-12-28T08:30:30;4.32;;;2.08;;
29568;SDS011;16501;51.462;14.346;2023-12-28T08:32:56;5.10;;;2.80;;
29568;SDS011;16501;51.462;14.346;2023-12-28T08:35:21;3.42;;;2.00;;
29568;SDS011;16501;51.462;14.346;2023-12-28T08:37:46;3.90;;;2.20;;
29568;SDS011;16501;51.462;14.346;2023-12-28T08:40:11;6.07;;;3.05;;
29568;SDS011;16501;51.462;14.346;2023-12-28T08:42:37;2.78;;;1.90;;
29568;SDS011;16501;51.462;14.346;2023-12-28T08:45:02;3.75;;;2.05;;
29568;SDS011;16501;51.462;14.346;2023-12-28T08:47:27;32.97;;;11.20;;
29568;SDS011;16501;51.462;14.346;2023-12-28T08:49:53;11.90;;;6.22;;
29568;SDS011;16501;51.462;14.346;2023-12-28T08:52:18;8.27;;;5.72;;
29568;SDS011;16501;51.462;14.346;2023-12-28T08:54:43;4.32;;;2.50;;
29568;SDS011;16501;51.462;14.346;2023-12-28T08:57:08;6.95;;;2.80;;
29568;SDS011;16501;51.462;14.346;2023-12-28T08:59:37;3.33;;;2.20;;
29568;SDS011;16501;51.462;14.346;2023-12-28T09:02:02;4.57;;;2.30;;
29568;SDS011;16501;51.462;14.346;2023-12-28T09:04:28;2.30;;;1.80;;
29568;SDS011;16501;51.462;14.346;2023-12-28T09:06:53;2.85;;;1.88;;
29568;SDS011;16501;51.462;14.346;2023-12-28T09:09:19;5.88;;;2.00;;
29568;SDS011;16501;51.462;14.346;2023-12-28T09:11:44;5.32;;;2.00;;
29568;SDS011;16501;51.462;14.346;2023-12-28T09:14:09;3.65;;;2.03;;
29568;SDS011;16501;51.462;14.346;2023-12-28T09:16:34;2.53;;;1.85;;
29568;SDS011;16501;51.462;14.346;2023-12-28T09:19:00;3.90;;;2.20;;
29568;SDS011;16501;51.462;14.346;2023-12-28T09:21:25;2.63;;;1.70;;
29568;SDS011;16501;51.462;14.346;2023-12-28T09:23:51;3.65;;;1.70;;
29568;SDS011;16501;51.462;14.346;2023-12-28T09:26:16;2.83;;;2.03;;
29568;SDS011;16501;51.462;14.346;2023-12-28T09:28:43;3.50;;;2.42;;
29568;SDS011;16501;51.462;14.346;2023-12-28T09:31:08;3.53;;;1.75;;
29568;SDS011;16501;51.462;14.346;2023-12-28T09:33:34;2.05;;;1.75;;
29568;SDS011;16501;51.462;14.346;2023-12-28T09:35:59;2.63;;;2.00;;
29568;SDS011;16501;51.462;14.346;2023-12-28T09:38:24;3.25;;;2.15;;
29568;SDS011;16501;51.462;14.346;2023-12-28T09:40:52;1.75;;;1.45;;
29568;SDS011;16501;51.462;14.346;2023-12-28T09:43:25;2.83;;;1.80;;
29568;SDS011;16501;51.462;14.346;2023-12-28T09:45:53;2.53;;;2.08;;
29568;SDS011;16501;51.462;14.346;2023-12-28T09:48:19;5.93;;;2.25;;
29568;SDS011;16501;51.462;14.346;2023-12-28T09:50:53;2.30;;;2.10;;
29568;SDS011;16501;51.462;14.346;2023-12-28T09:53:22;3.05;;;1.92;;
29568;SDS011;16501;51.462;14.346;2023-12-28T09:55:48;3.78;;;2.22;;
29568;SDS011;16501;51.462;14.346;2023-12-28T09:58:14;3.88;;;2.40;;
29568;SDS011;16501;51.462;14.346;2023-12-28T10:00:44;8.20;;;2.33;;
29568;SDS011;16501;51.462;14.346;2023-12-28T10:03:09;2.75;;;2.10;;
29568;SDS011;16501;51.462;14.346;2023-12-28T10:05:37;8.30;;;2.45;;
29568;SDS011;16501;51.462;14.346;2023-12-28T10:08:02;3.42;;;1.98;;
29568;SDS011;16501;51.462;14.346;2023-12-28T10:10:28;2.22;;;1.80;;
29568;SDS011;16501;51.462;14.346;2023-12-28T10:12:54;4.18;;;2.00;;
29568;SDS011;16501;51.462;14.346;2023-12-28T10:15:19;3.97;;;2.50;;
29568;SDS011;16501;51.462;14.346;2023-12-28T10:17:45;3.63;;;2.20;;
29568;SDS011;16501;51.462;14.346;2023-12-28T10:20:11;4.57;;;2.80;;
29568;SDS011;16501;51.462;14.346;2023-12-28T10:22:37;4.70;;;2.80;;
29568;SDS011;16501;51.462;14.346;2023-12-28T10:25:03;4.32;;;3.00;;
29568;SDS011;16501;51.462;14.346;2023-12-28T10:27:29;4.13;;;3.30;;
29568;SDS011;16501;51.462;14.346;2023-12-28T10:29:55;4.13;;;2.30;;
29568;SDS011;16501;51.462;14.346;2023-12-28T10:32:21;4.50;;;2.33;;
29568;SDS011;16501;51.462;14.346;2023-12-28T10:34:48;6.93;;;3.90;;
29568;SDS011;16501;51.462;14.346;2023-12-28T10:37:13;5.80;;;3.30;;
29568;SDS011;16501;51.462;14.346;2023-12-28T10:39:40;8.80;;;3.97;;
29568;SDS011;16501;51.462;14.346;2023-12-28T10:42:11;3.92;;;2.55;;
29568;SDS011;16501;51.462;14.346;2023-12-28T10:44:42;5.70;;;3.53;;
29568;SDS011;16501;51.462;14.346;2023-12-28T10:47:10;4.30;;;2.97;;
29568;SDS011;16501;51.462;14.346;2023-12-28T10:49:42;6.47;;;2.80;;
29568;SDS011;16501;51.462;14.346;2023-12-28T10:52:09;7.95;;;3.90;;
29568;SDS011;16501;51.462;14.346;2023-12-28T10:54:49;3.35;;;2.42;;
29568;SDS011;16501;51.462;14.346;2023-12-28T10:57:33;4.13;;;2.20;;
29568;SDS011;16501;51.462;14.346;2023-12-28T11:00:15;5.85;;;2.10;;
29568;SDS011;16501;51.462;14.346;2023-12-28T11:02:45;4.25;;;2.50;;
29568;SDS011;16501;51.462;14.346;2023-12-28T11:05:12;2.58;;;1.60;;
29568;SDS011;16501;51.462;14.346;2023-12-28T11:07:38;3.05;;;1.92;;
29568;SDS011;16501;51.462;14.346;2023-12-28T11:10:06;3.83;;;2.10;;
29568;SDS011;16501;51.462;14.346;2023-12-28T11:12:32;2.40;;;1.67;;
29568;SDS011;16501;51.462;14.346;2023-12-28T11:14:58;4.05;;;2.63;;
29568;SDS011;16501;51.462;14.346;2023-12-28T11:17:24;10.95;;;6.20;;
29568;SDS011;16501;51.462;14.346;2023-12-28T11:19:50;29.13;;;15.70;;
29568;SDS011;16501;51.462;14.346;2023-12-28T11:22:18;17.10;;;10.50;;
29568;SDS011;16501;51.462;14.346;2023-12-28T11:24:44;5.65;;;2.92;;
29568;SDS011;16501;51.462;14.346;2023-12-28T11:27:09;4.88;;;3.22;;
29568;SDS011;16501;51.462;14.346;2023-12-28T11:29:35;4.68;;;2.63;;
29568;SDS011;16501;51.462;14.346;2023-12-28T11:32:00;6.07;;;3.63;;
29568;SDS011;16501;51.462;14.346;2023-12-28T11:34:29;5.00;;;2.95;;
29568;SDS011;16501;51.462;14.346;2023-12-28T11:36:59;3.13;;;2.60;;
29568;SDS011;16501;51.462;14.346;2023-12-28T11:39:31;3.92;;;2.85;;
29568;SDS011;16501;51.462;14.346;2023-12-28T11:42:02;2.97;;;2.28;;
29568;SDS011;16501;51.462;14.346;2023-12-28T11:44:28;2.70;;;2.05;;
29568;SDS011;16501;51.462;14.346;2023-12-28T11:47:13;3.30;;;2.30;;
29568;SDS011;16501;51.462;14.346;2023-12-28T11:49:39;3.05;;;2.35;;
29568;SDS011;16501;51.462;14.346;2023-12-28T11:52:06;2.88;;;2.03;;
29568;SDS011;16501;51.462;14.346;2023-12-28T11:54:32;9.00;;;3.13;;
29568;SDS011;16501;51.462;14.346;2023-12-28T11:56:57;3.17;;;1.83;;
29568;SDS011;16501;51.462;14.346;2023-12-28T11:59:22;2.90;;;1.90;;
29568;SDS011;16501;51.462;14.346;2023-12-28T12:01:51;4.07;;;1.95;;
29568;SDS011;16501;51.462;14.346;2023-12-28T12:04:18;3.22;;;2.30;;
29568;SDS011;16501;51.462;14.346;2023-12-28T12:06:46;3.90;;;2.17;;
29568;SDS011;16501;51.462;14.346;2023-12-28T12:09:12;3.60;;;1.92;;
29568;SDS011;16501;51.462;14.346;2023-12-28T12:11:39;3.65;;;1.98;;
29568;SDS011;16501;51.462;14.346;2023-12-28T12:14:10;2.13;;;1.92;;
29568;SDS011;16501;51.462;14.346;2023-12-28T12:19:02;6.30;;;2.63;;
29568;SDS011;16501;51.462;14.346;2023-12-28T12:21:34;5.68;;;1.92;;
29568;SDS011;16501;51.462;14.346;2023-12-28T12:24:00;2.40;;;1.80;;
29568;SDS011;16501;51.462;14.346;2023-12-28T12:26:26;5.95;;;2.25;;
29568;SDS011;16501;51.462;14.346;2023-12-28T12:28:52;3.92;;;1.85;;
29568;SDS011;16501;51.462;14.346;2023-12-28T12:31:17;5.18;;;2.78;;
29568;SDS011;16501;51.462;14.346;2023-12-28T12:33:43;7.03;;;3.53;;
29568;SDS011;16501;51.462;14.346;2023-12-28T12:36:08;5.90;;;3.65;;
29568;SDS011;16501;51.462;14.346;2023-12-28T12:38:34;3.88;;;2.85;;
29568;SDS011;16501;51.462;14.346;2023-12-28T12:40:59;3.15;;;2.15;;
29568;SDS011;16501;51.462;14.346;2023-12-28T12:43:25;7.63;;;4.00;;
29568;SDS011;16501;51.462;14.346;2023-12-28T12:45:51;6.35;;;3.10;;
29568;SDS011;16501;51.462;14.346;2023-12-28T12:48:16;5.13;;;2.70;;
29568;SDS011;16501;51.462;14.346;2023-12-28T12:50:42;2.65;;;1.70;;
29568;SDS011;16501;51.462;14.346;2023-12-28T12:53:08;2.65;;;1.92;;
29568;SDS011;16501;51.462;14.346;2023-12-28T12:55:33;3.53;;;2.08;;
29568;SDS011;16501;51.462;14.346;2023-12-28T12:58:01;2.55;;;1.83;;
29568;SDS011;16501;51.462;14.346;2023-12-28T13:00:27;3.13;;;1.70;;
29568;SDS011;16501;51.462;14.346;2023-12-28T13:02:53;5.00;;;2.00;;
29568;SDS011;16501;51.462;14.346;2023-12-28T13:05:20;3.13;;;2.35;;
29568;SDS011;16501;51.462;14.346;2023-12-28T13:07:45;5.78;;;2.65;;
29568;SDS011;16501;51.462;14.346;2023-12-28T13:10:11;4.40;;;1.98;;
29568;SDS011;16501;51.462;14.346;2023-12-28T13:12:36;4.22;;;1.90;;
29568;SDS011;16501;51.462;14.346;2023-12-28T13:15:01;3.08;;;1.80;;
29568;SDS011;16501;51.462;14.346;2023-12-28T13:17:27;4.20;;;1.88;;
29568;SDS011;16501;51.462;14.346;2023-12-28T13:19:52;3.67;;;1.80;;
29568;SDS011;16501;51.462;14.346;2023-12-28T13:22:17;1.95;;;1.65;;
29568;SDS011;16501;51.462;14.346;2023-12-28T13:24:43;3.05;;;2.22;;
29568;SDS011;16501;51.462;14.346;2023-12-28T13:27:08;5.80;;;2.47;;
29568;SDS011;16501;51.462;14.346;2023-12-28T13:29:35;6.75;;;2.03;;
29568;SDS011;16501;51.462;14.346;2023-12-28T13:32:00;2.92;;;1.70;;
29568;SDS011;16501;51.462;14.346;2023-12-28T13:34:26;2.40;;;1.83;;
29568;SDS011;16501;51.462;14.346;2023-12-28T13:36:53;2.53;;;1.85;;
29568;SDS011;16501;51.462;14.346;2023-12-28T13:39:18;2.22;;;1.63;;
29568;SDS011;16501;51.462;14.346;2023-12-28T13:41:44;4.28;;;1.70;;
29568;SDS011;16501;51.462;14.346;2023-12-28T13:44:09;2.83;;;1.52;;
29568;SDS011;16501;51.462;14.346;2023-12-28T13:46:38;2.85;;;1.60;;
29568;SDS011;16501;51.462;14.346;2023-12-28T13:49:03;3.88;;;1.50;;
29568;SDS011;16501;51.462;14.346;2023-12-28T13:51:29;2.42;;;1.92;;
29568;SDS011;16501;51.462;14.346;2023-12-28T13:53:55;5.38;;;3.33;;
29568;SDS011;16501;51.462;14.346;2023-12-28T13:56:20;5.45;;;3.40;;
29568;SDS011;16501;51.462;14.346;2023-12-28T13:58:46;7.22;;;3.25;;
29568;SDS011;16501;51.462;14.346;2023-12-28T14:01:11;8.95;;;5.35;;
29568;SDS011;16501;51.462;14.346;2023-12-28T14:03:37;7.90;;;3.63;;
29568;SDS011;16501;51.462;14.346;2023-12-28T14:06:02;4.75;;;2.33;;
29568;SDS011;16501;51.462;14.346;2023-12-28T14:08:27;3.90;;;2.38;;
29568;SDS011;16501;51.462;14.346;2023-12-28T14:10:52;2.67;;;1.75;;
29568;SDS011;16501;51.462;14.346;2023-12-28T14:13:18;2.83;;;2.08;;
29568;SDS011;16501;51.462;14.346;2023-12-28T14:15:44;4.82;;;2.10;;
29568;SDS011;16501;51.462;14.346;2023-12-28T14:18:09;2.78;;;2.17;;
29568;SDS011;16501;51.462;14.346;2023-12-28T14:20:35;3.83;;;2.50;;
29568;SDS011;16501;51.462;14.346;2023-12-28T14:23:00;5.30;;;2.65;;
29568;SDS011;16501;51.462;14.346;2023-12-28T14:25:26;4.32;;;2.70;;
29568;SDS011;16501;51.462;14.346;2023-12-28T14:27:52;3.83;;;2.20;;